sensor_id;sensor_type;location;lat;lon;timestamp;P1;durP1;ratioP1;P2;durP2;ratioP2
56427;SDS011;42331;53.578;9.760;2023-05-31T00:02:10;10.25;;;4.80;;
56427;SDS011;42331;53.578;9.760;2023-05-31T00:04:41;11.70;;;4.93;;
56427;SDS011;42331;53.578;9.760;2023-05-31T00:07:12;10.00;;;5.40;;
56427;SDS011;42331;53.578;9.760;2023-05-31T00:09:43;10.65;;;5.43;;
56427;SDS011;42331;53.578;9.760;2023-05-31T00:12:13;11.23;;;5.45;;
56427;SDS011;42331;53.578;9.760;2023-05-31T00:14:45;10.90;;;5.40;;
56427;SDS011;42331;53.578;9.760;2023-05-31T00:17:16;10.05;;;5.80;;
56427;SDS011;42331;53.578;9.760;2023-05-31T00:19:47;11.07;;;5.10;;
56427;SDS011;42331;53.578;9.760;2023-05-31T00:22:18;8.90;;;5.32;;
56427;SDS011;42331;53.578;9.760;2023-05-31T00:24:48;8.68;;;5.25;;
56427;SDS011;42331;53.578;9.760;2023-05-31T00:27:19;9.48;;;4.93;;
56427;SDS011;42331;53.578;9.760;2023-05-31T00:29:50;11.80;;;6.10;;
56427;SDS011;42331;53.578;9.760;2023-05-31T00:32:21;11.07;;;5.87;;
56427;SDS011;42331;53.578;9.760;2023-05-31T00:34:51;11.65;;;6.00;;
56427;SDS011;42331;53.578;9.760;2023-05-31T00:37:22;10.20;;;6.10;;
56427;SDS011;42331;53.578;9.760;2023-05-31T00:39:53;11.20;;;5.53;;
56427;SDS011;42331;53.578;9.760;2023-05-31T00:42:24;11.02;;;5.60;;
56427;SDS011;42331;53.578;9.760;2023-05-31T00:47:26;11.32;;;5.45;;
56427;SDS011;42331;53.578;9.760;2023-05-31T00:49:58;13.82;;;6.07;;
56427;SDS011;42331;53.578;9.760;2023-05-31T00:52:29;11.00;;;6.47;;
56427;SDS011;42331;53.578;9.760;2023-05-31T00:55:01;11.65;;;5.60;;
56427;SDS011;42331;53.578;9.760;2023-05-31T00:57:32;12.27;;;6.57;;
56427;SDS011;42331;53.578;9.760;2023-05-31T01:00:03;10.35;;;6.07;;
56427;SDS011;42331;53.578;9.760;2023-05-31T01:02:35;13.20;;;5.75;;
56427;SDS011;42331;53.578;9.760;2023-05-31T01:05:08;10.00;;;5.55;;
56427;SDS011;42331;53.578;9.760;2023-05-31T01:07:39;10.25;;;6.40;;
56427;SDS011;42331;53.578;9.760;2023-05-31T01:10:09;12.65;;;6.28;;
56427;SDS011;42331;53.578;9.760;2023-05-31T01:15:35;13.13;;;6.47;;
56427;SDS011;42331;53.578;9.760;2023-05-31T01:18:25;11.50;;;5.88;;
56427;SDS011;42331;53.578;9.760;2023-05-31T01:21:05;11.93;;;6.50;;
56427;SDS011;42331;53.578;9.760;2023-05-31T01:31:40;11.02;;;6.20;;
56427;SDS011;42331;53.578;9.760;2023-05-31T01:36:42;10.13;;;5.72;;
56427;SDS011;42331;53.578;9.760;2023-05-31T01:39:13;14.65;;;6.57;;
56427;SDS011;42331;53.578;9.760;2023-05-31T01:41:44;12.90;;;6.60;;
56427;SDS011;42331;53.578;9.760;2023-05-31T01:44:16;11.98;;;6.60;;
56427;SDS011;42331;53.578;9.760;2023-05-31T01:46:50;14.25;;;6.45;;
56427;SDS011;42331;53.578;9.760;2023-05-31T01:49:22;10.60;;;6.22;;
56427;SDS011;42331;53.578;9.760;2023-05-31T01:51:53;11.40;;;6.43;;
56427;SDS011;42331;53.578;9.760;2023-05-31T01:54:26;11.57;;;6.30;;
56427;SDS011;42331;53.578;9.760;2023-05-31T01:56:57;12.88;;;6.03;;
56427;SDS011;42331;53.578;9.760;2023-05-31T01:59:29;11.48;;;5.82;;
56427;SDS011;42331;53.578;9.760;2023-05-31T02:02:04;12.27;;;5.68;;
56427;SDS011;42331;53.578;9.760;2023-05-31T02:04:35;12.63;;;6.75;;
56427;SDS011;42331;53.578;9.760;2023-05-31T02:07:06;13.45;;;6.55;;
56427;SDS011;42331;53.578;9.760;2023-05-31T02:09:38;13.23;;;6.50;;
56427;SDS011;42331;53.578;9.760;2023-05-31T02:12:09;12.80;;;5.80;;
56427;SDS011;42331;53.578;9.760;2023-05-31T02:14:40;14.27;;;6.88;;
56427;SDS011;42331;53.578;9.760;2023-05-31T02:17:11;13.38;;;6.65;;
56427;SDS011;42331;53.578;9.760;2023-05-31T02:19:43;15.90;;;7.05;;
56427;SDS011;42331;53.578;9.760;2023-05-31T02:22:17;11.13;;;5.90;;
56427;SDS011;42331;53.578;9.760;2023-05-31T02:24:49;10.38;;;5.70;;
56427;SDS011;42331;53.578;9.760;2023-05-31T02:27:19;13.15;;;6.20;;
56427;SDS011;42331;53.578;9.760;2023-05-31T02:29:50;8.05;;;5.57;;
56427;SDS011;42331;53.578;9.760;2023-05-31T02:32:21;10.50;;;6.10;;
56427;SDS011;42331;53.578;9.760;2023-05-31T02:34:52;10.48;;;6.13;;
56427;SDS011;42331;53.578;9.760;2023-05-31T02:37:22;12.40;;;6.22;;
56427;SDS011;42331;53.578;9.760;2023-05-31T02:39:53;10.52;;;5.68;;
56427;SDS011;42331;53.578;9.760;2023-05-31T02:42:24;10.23;;;5.70;;
56427;SDS011;42331;53.578;9.760;2023-05-31T02:44:55;13.57;;;5.85;;
56427;SDS011;42331;53.578;9.760;2023-05-31T02:47:25;13.75;;;6.03;;
56427;SDS011;42331;53.578;9.760;2023-05-31T02:49:57;10.73;;;6.40;;
56427;SDS011;42331;53.578;9.760;2023-05-31T02:52:29;10.43;;;6.00;;
56427;SDS011;42331;53.578;9.760;2023-05-31T02:55:00;13.65;;;6.40;;
56427;SDS011;42331;53.578;9.760;2023-05-31T02:57:31;11.48;;;5.47;;
56427;SDS011;42331;53.578;9.760;2023-05-31T03:00:02;14.52;;;6.15;;
56427;SDS011;42331;53.578;9.760;2023-05-31T03:02:43;11.90;;;5.47;;
56427;SDS011;42331;53.578;9.760;2023-05-31T03:05:14;10.82;;;5.55;;
56427;SDS011;42331;53.578;9.760;2023-05-31T03:07:44;9.95;;;5.53;;
56427;SDS011;42331;53.578;9.760;2023-05-31T03:10:15;10.88;;;5.65;;
56427;SDS011;42331;53.578;9.760;2023-05-31T03:12:46;10.73;;;5.82;;
56427;SDS011;42331;53.578;9.760;2023-05-31T03:15:17;11.75;;;5.88;;
56427;SDS011;42331;53.578;9.760;2023-05-31T03:17:47;9.60;;;5.30;;
56427;SDS011;42331;53.578;9.760;2023-05-31T03:20:18;10.40;;;5.22;;
56427;SDS011;42331;53.578;9.760;2023-05-31T03:22:49;13.45;;;5.50;;
56427;SDS011;42331;53.578;9.760;2023-05-31T03:25:19;10.90;;;6.32;;
56427;SDS011;42331;53.578;9.760;2023-05-31T03:27:51;14.57;;;5.60;;
56427;SDS011;42331;53.578;9.760;2023-05-31T03:30:21;10.50;;;5.47;;
56427;SDS011;42331;53.578;9.760;2023-05-31T03:32:52;11.70;;;5.97;;
56427;SDS011;42331;53.578;9.760;2023-05-31T03:35:23;12.38;;;5.40;;
56427;SDS011;42331;53.578;9.760;2023-05-31T03:37:53;11.57;;;5.15;;
56427;SDS011;42331;53.578;9.760;2023-05-31T03:40:24;10.88;;;5.22;;
56427;SDS011;42331;53.578;9.760;2023-05-31T03:42:55;11.18;;;5.13;;
56427;SDS011;42331;53.578;9.760;2023-05-31T03:45:25;11.23;;;5.43;;
56427;SDS011;42331;53.578;9.760;2023-05-31T03:47:56;9.80;;;4.95;;
56427;SDS011;42331;53.578;9.760;2023-05-31T03:50:27;10.07;;;5.40;;
56427;SDS011;42331;53.578;9.760;2023-05-31T03:52:58;8.55;;;4.85;;
56427;SDS011;42331;53.578;9.760;2023-05-31T03:55:28;11.65;;;4.82;;
56427;SDS011;42331;53.578;9.760;2023-05-31T03:58:00;11.00;;;5.20;;
56427;SDS011;42331;53.578;9.760;2023-05-31T04:00:31;10.48;;;5.47;;
56427;SDS011;42331;53.578;9.760;2023-05-31T04:03:02;9.55;;;5.45;;
56427;SDS011;42331;53.578;9.760;2023-05-31T04:05:32;10.10;;;5.32;;
56427;SDS011;42331;53.578;9.760;2023-05-31T04:08:03;11.35;;;5.40;;
56427;SDS011;42331;53.578;9.760;2023-05-31T04:10:35;10.70;;;5.53;;
56427;SDS011;42331;53.578;9.760;2023-05-31T04:13:08;11.82;;;5.30;;
56427;SDS011;42331;53.578;9.760;2023-05-31T04:15:39;10.38;;;5.78;;
56427;SDS011;42331;53.578;9.760;2023-05-31T04:18:10;10.43;;;5.70;;
56427;SDS011;42331;53.578;9.760;2023-05-31T04:20:43;9.95;;;5.85;;
56427;SDS011;42331;53.578;9.760;2023-05-31T04:23:14;9.75;;;5.70;;
56427;SDS011;42331;53.578;9.760;2023-05-31T04:25:45;11.77;;;5.82;;
56427;SDS011;42331;53.578;9.760;2023-05-31T04:28:16;10.65;;;5.63;;
56427;SDS011;42331;53.578;9.760;2023-05-31T04:30:49;10.70;;;5.63;;
56427;SDS011;42331;53.578;9.760;2023-05-31T04:33:24;10.70;;;5.60;;
56427;SDS011;42331;53.578;9.760;2023-05-31T04:35:59;9.98;;;5.63;;
56427;SDS011;42331;53.578;9.760;2023-05-31T04:38:30;12.60;;;6.32;;
56427;SDS011;42331;53.578;9.760;2023-05-31T04:41:02;13.68;;;6.43;;
56427;SDS011;42331;53.578;9.760;2023-05-31T04:43:33;13.55;;;6.40;;
56427;SDS011;42331;53.578;9.760;2023-05-31T04:46:04;9.43;;;5.97;;
56427;SDS011;42331;53.578;9.760;2023-05-31T04:48:35;9.55;;;5.70;;
56427;SDS011;42331;53.578;9.760;2023-05-31T04:51:12;15.38;;;6.38;;
56427;SDS011;42331;53.578;9.760;2023-05-31T04:53:46;14.77;;;7.03;;
56427;SDS011;42331;53.578;9.760;2023-05-31T04:56:20;14.63;;;7.32;;
56427;SDS011;42331;53.578;9.760;2023-05-31T04:58:51;14.30;;;7.03;;
56427;SDS011;42331;53.578;9.760;2023-05-31T05:01:28;21.65;;;7.38;;
56427;SDS011;42331;53.578;9.760;2023-05-31T05:03:59;10.90;;;6.60;;
56427;SDS011;42331;53.578;9.760;2023-05-31T05:06:30;15.35;;;7.28;;
56427;SDS011;42331;53.578;9.760;2023-05-31T05:09:00;7.88;;;5.15;;
56427;SDS011;42331;53.578;9.760;2023-05-31T05:11:31;12.20;;;6.70;;
56427;SDS011;42331;53.578;9.760;2023-05-31T05:14:02;13.98;;;6.78;;
56427;SDS011;42331;53.578;9.760;2023-05-31T05:16:35;13.95;;;6.72;;
56427;SDS011;42331;53.578;9.760;2023-05-31T05:19:06;15.73;;;6.55;;
56427;SDS011;42331;53.578;9.760;2023-05-31T05:21:36;14.73;;;6.47;;
56427;SDS011;42331;53.578;9.760;2023-05-31T05:24:07;11.18;;;6.13;;
56427;SDS011;42331;53.578;9.760;2023-05-31T05:26:38;12.15;;;6.32;;
56427;SDS011;42331;53.578;9.760;2023-05-31T05:29:09;14.27;;;6.00;;
56427;SDS011;42331;53.578;9.760;2023-05-31T05:31:42;9.27;;;5.43;;
56427;SDS011;42331;53.578;9.760;2023-05-31T05:34:15;12.13;;;5.93;;
56427;SDS011;42331;53.578;9.760;2023-05-31T05:36:46;13.10;;;5.75;;
56427;SDS011;42331;53.578;9.760;2023-05-31T05:39:17;10.05;;;5.68;;
56427;SDS011;42331;53.578;9.760;2023-05-31T05:41:51;10.05;;;5.70;;
56427;SDS011;42331;53.578;9.760;2023-05-31T05:44:22;12.30;;;6.03;;
56427;SDS011;42331;53.578;9.760;2023-05-31T05:46:53;13.35;;;5.47;;
56427;SDS011;42331;53.578;9.760;2023-05-31T05:49:24;8.38;;;4.85;;
56427;SDS011;42331;53.578;9.760;2023-05-31T05:51:55;9.73;;;5.00;;
56427;SDS011;42331;53.578;9.760;2023-05-31T05:54:25;12.98;;;5.85;;
56427;SDS011;42331;53.578;9.760;2023-05-31T05:56:56;7.82;;;4.22;;
56427;SDS011;42331;53.578;9.760;2023-05-31T05:59:27;12.98;;;5.22;;
56427;SDS011;42331;53.578;9.760;2023-05-31T06:01:58;6.72;;;3.65;;
56427;SDS011;42331;53.578;9.760;2023-05-31T06:04:28;7.68;;;4.70;;
56427;SDS011;42331;53.578;9.760;2023-05-31T06:06:59;12.35;;;5.28;;
56427;SDS011;42331;53.578;9.760;2023-05-31T06:09:30;10.88;;;5.50;;
56427;SDS011;42331;53.578;9.760;2023-05-31T06:12:09;8.27;;;4.20;;
56427;SDS011;42331;53.578;9.760;2023-05-31T06:14:49;9.57;;;3.88;;
56427;SDS011;42331;53.578;9.760;2023-05-31T06:17:20;7.93;;;4.40;;
56427;SDS011;42331;53.578;9.760;2023-05-31T06:19:53;10.88;;;3.97;;
56427;SDS011;42331;53.578;9.760;2023-05-31T06:22:24;5.78;;;3.15;;
56427;SDS011;42331;53.578;9.760;2023-05-31T06:24:56;7.38;;;3.97;;
56427;SDS011;42331;53.578;9.760;2023-05-31T06:27:27;7.32;;;3.17;;
56427;SDS011;42331;53.578;9.760;2023-05-31T06:29:58;9.70;;;3.63;;
56427;SDS011;42331;53.578;9.760;2023-05-31T06:35:01;7.72;;;3.22;;
56427;SDS011;42331;53.578;9.760;2023-05-31T06:37:32;9.35;;;3.20;;
56427;SDS011;42331;53.578;9.760;2023-05-31T06:40:03;6.07;;;3.13;;
56427;SDS011;42331;53.578;9.760;2023-05-31T06:42:35;6.95;;;3.17;;
56427;SDS011;42331;53.578;9.760;2023-05-31T06:45:06;5.70;;;2.72;;
56427;SDS011;42331;53.578;9.760;2023-05-31T06:47:39;9.60;;;2.60;;
56427;SDS011;42331;53.578;9.760;2023-05-31T06:50:35;6.90;;;2.90;;
56427;SDS011;42331;53.578;9.760;2023-05-31T06:53:09;4.43;;;2.45;;
56427;SDS011;42331;53.578;9.760;2023-05-31T06:55:43;7.00;;;2.90;;
56427;SDS011;42331;53.578;9.760;2023-05-31T06:58:14;5.68;;;2.13;;
56427;SDS011;42331;53.578;9.760;2023-05-31T07:03:16;6.28;;;2.30;;
56427;SDS011;42331;53.578;9.760;2023-05-31T07:05:50;5.97;;;1.95;;
56427;SDS011;42331;53.578;9.760;2023-05-31T07:08:27;5.93;;;1.90;;
56427;SDS011;42331;53.578;9.760;2023-05-31T07:11:00;8.20;;;2.25;;
56427;SDS011;42331;53.578;9.760;2023-05-31T07:13:31;7.60;;;2.03;;
56427;SDS011;42331;53.578;9.760;2023-05-31T07:16:02;4.85;;;1.98;;
56427;SDS011;42331;53.578;9.760;2023-05-31T07:18:32;6.07;;;1.67;;
56427;SDS011;42331;53.578;9.760;2023-05-31T07:21:03;3.33;;;1.20;;
56427;SDS011;42331;53.578;9.760;2023-05-31T07:23:34;5.90;;;1.77;;
56427;SDS011;42331;53.578;9.760;2023-05-31T07:26:04;6.20;;;2.10;;
56427;SDS011;42331;53.578;9.760;2023-05-31T07:28:41;7.68;;;2.10;;
56427;SDS011;42331;53.578;9.760;2023-05-31T07:31:18;9.38;;;1.95;;
56427;SDS011;42331;53.578;9.760;2023-05-31T07:34:00;7.43;;;2.22;;
56427;SDS011;42331;53.578;9.760;2023-05-31T07:36:33;6.50;;;2.38;;
56427;SDS011;42331;53.578;9.760;2023-05-31T07:39:10;6.40;;;1.63;;
56427;SDS011;42331;53.578;9.760;2023-05-31T07:41:49;8.40;;;1.85;;
56427;SDS011;42331;53.578;9.760;2023-05-31T07:44:26;5.32;;;1.40;;
56427;SDS011;42331;53.578;9.760;2023-05-31T07:47:18;6.20;;;1.95;;
56427;SDS011;42331;53.578;9.760;2023-05-31T07:50:00;6.88;;;1.90;;
56427;SDS011;42331;53.578;9.760;2023-05-31T07:52:45;6.22;;;2.10;;
56427;SDS011;42331;53.578;9.760;2023-05-31T07:55:19;8.75;;;2.22;;
56427;SDS011;42331;53.578;9.760;2023-05-31T08:00:56;7.45;;;1.88;;
56427;SDS011;42331;53.578;9.760;2023-05-31T08:03:30;6.18;;;1.70;;
56427;SDS011;42331;53.578;9.760;2023-05-31T08:13:32;5.53;;;1.65;;
56427;SDS011;42331;53.578;9.760;2023-05-31T08:16:03;5.55;;;2.03;;
56427;SDS011;42331;53.578;9.760;2023-05-31T08:18:34;6.55;;;1.80;;
56427;SDS011;42331;53.578;9.760;2023-05-31T08:21:05;4.53;;;1.50;;
56427;SDS011;42331;53.578;9.760;2023-05-31T08:23:36;5.90;;;1.43;;
56427;SDS011;42331;53.578;9.760;2023-05-31T08:26:06;4.53;;;1.60;;
56427;SDS011;42331;53.578;9.760;2023-05-31T08:28:37;8.63;;;2.00;;
56427;SDS011;42331;53.578;9.760;2023-05-31T08:31:08;7.00;;;1.83;;
56427;SDS011;42331;53.578;9.760;2023-05-31T08:33:51;5.77;;;1.80;;
56427;SDS011;42331;53.578;9.760;2023-05-31T08:36:23;6.45;;;1.60;;
56427;SDS011;42331;53.578;9.760;2023-05-31T08:41:26;5.95;;;1.67;;
56427;SDS011;42331;53.578;9.760;2023-05-31T08:44:01;6.88;;;1.60;;
56427;SDS011;42331;53.578;9.760;2023-05-31T08:46:34;7.50;;;1.48;;
56427;SDS011;42331;53.578;9.760;2023-05-31T08:49:08;7.10;;;1.63;;
56427;SDS011;42331;53.578;9.760;2023-05-31T08:51:41;7.35;;;1.95;;
56427;SDS011;42331;53.578;9.760;2023-05-31T08:54:18;7.07;;;2.00;;
56427;SDS011;42331;53.578;9.760;2023-05-31T08:56:49;7.50;;;2.00;;
56427;SDS011;42331;53.578;9.760;2023-05-31T09:01:52;10.88;;;2.63;;
56427;SDS011;42331;53.578;9.760;2023-05-31T09:04:23;6.23;;;1.80;;
56427;SDS011;42331;53.578;9.760;2023-05-31T09:06:55;10.50;;;1.98;;
56427;SDS011;42331;53.578;9.760;2023-05-31T09:09:26;7.67;;;2.00;;
56427;SDS011;42331;53.578;9.760;2023-05-31T09:11:56;4.33;;;1.30;;
56427;SDS011;42331;53.578;9.760;2023-05-31T09:14:27;6.53;;;2.10;;
56427;SDS011;42331;53.578;9.760;2023-05-31T09:16:59;5.70;;;1.58;;
56427;SDS011;42331;53.578;9.760;2023-05-31T09:19:30;6.37;;;1.20;;
56427;SDS011;42331;53.578;9.760;2023-05-31T09:22:01;5.22;;;1.73;;
56427;SDS011;42331;53.578;9.760;2023-05-31T09:24:34;7.00;;;1.67;;
56427;SDS011;42331;53.578;9.760;2023-05-31T09:27:04;5.13;;;1.60;;
56427;SDS011;42331;53.578;9.760;2023-05-31T09:29:36;6.90;;;1.80;;
56427;SDS011;42331;53.578;9.760;2023-05-31T09:32:10;3.77;;;1.07;;
56427;SDS011;42331;53.578;9.760;2023-05-31T09:34:41;8.85;;;1.70;;
56427;SDS011;42331;53.578;9.760;2023-05-31T09:37:24;8.20;;;1.80;;
56427;SDS011;42331;53.578;9.760;2023-05-31T09:39:55;6.38;;;1.45;;
56427;SDS011;42331;53.578;9.760;2023-05-31T09:44:59;5.43;;;1.65;;
56427;SDS011;42331;53.578;9.760;2023-05-31T09:47:30;9.43;;;1.70;;
56427;SDS011;42331;53.578;9.760;2023-05-31T09:50:00;3.83;;;1.40;;
56427;SDS011;42331;53.578;9.760;2023-05-31T09:52:31;6.83;;;1.60;;
56427;SDS011;42331;53.578;9.760;2023-05-31T09:55:08;4.20;;;1.40;;
56427;SDS011;42331;53.578;9.760;2023-05-31T09:57:40;4.97;;;1.52;;
56427;SDS011;42331;53.578;9.760;2023-05-31T10:00:14;6.38;;;1.23;;
56427;SDS011;42331;53.578;9.760;2023-05-31T10:02:49;3.88;;;1.30;;
56427;SDS011;42331;53.578;9.760;2023-05-31T10:05:21;4.78;;;1.08;;
56427;SDS011;42331;53.578;9.760;2023-05-31T10:07:52;6.53;;;1.40;;
56427;SDS011;42331;53.578;9.760;2023-05-31T10:10:24;5.03;;;1.35;;
56427;SDS011;42331;53.578;9.760;2023-05-31T10:12:57;5.00;;;1.23;;
56427;SDS011;42331;53.578;9.760;2023-05-31T10:15:29;5.00;;;1.52;;
56427;SDS011;42331;53.578;9.760;2023-05-31T10:18:02;5.60;;;1.50;;
56427;SDS011;42331;53.578;9.760;2023-05-31T10:20:52;5.65;;;1.83;;
56427;SDS011;42331;53.578;9.760;2023-05-31T10:23:26;3.78;;;1.25;;
56427;SDS011;42331;53.578;9.760;2023-05-31T10:31:30;3.63;;;1.08;;
56427;SDS011;42331;53.578;9.760;2023-05-31T10:34:31;3.75;;;1.40;;
56427;SDS011;42331;53.578;9.760;2023-05-31T10:37:01;3.60;;;1.13;;
56427;SDS011;42331;53.578;9.760;2023-05-31T10:39:49;4.25;;;1.00;;
56427;SDS011;42331;53.578;9.760;2023-05-31T10:42:40;6.05;;;1.40;;
56427;SDS011;42331;53.578;9.760;2023-05-31T10:45:25;5.75;;;1.30;;
56427;SDS011;42331;53.578;9.760;2023-05-31T10:50:56;3.85;;;1.42;;
56427;SDS011;42331;53.578;9.760;2023-05-31T10:53:36;5.75;;;1.90;;
56427;SDS011;42331;53.578;9.760;2023-05-31T10:56:10;6.85;;;1.70;;
56427;SDS011;42331;53.578;9.760;2023-05-31T10:58:50;4.93;;;1.48;;
56427;SDS011;42331;53.578;9.760;2023-05-31T11:01:27;5.43;;;1.60;;
56427;SDS011;42331;53.578;9.760;2023-05-31T11:03:59;3.22;;;0.88;;
56427;SDS011;42331;53.578;9.760;2023-05-31T11:06:31;5.88;;;0.93;;
56427;SDS011;42331;53.578;9.760;2023-05-31T11:09:10;3.50;;;0.90;;
56427;SDS011;42331;53.578;9.760;2023-05-31T11:11:43;6.22;;;1.20;;
56427;SDS011;42331;53.578;9.760;2023-05-31T11:24:52;5.07;;;0.90;;
56427;SDS011;42331;53.578;9.760;2023-05-31T11:27:37;5.00;;;1.10;;
56427;SDS011;42331;53.578;9.760;2023-05-31T11:30:09;5.35;;;1.10;;
56427;SDS011;42331;53.578;9.760;2023-05-31T11:35:14;8.90;;;1.47;;
56427;SDS011;42331;53.578;9.760;2023-05-31T11:37:45;7.28;;;1.30;;
56427;SDS011;42331;53.578;9.760;2023-05-31T11:40:16;6.07;;;1.30;;
56427;SDS011;42331;53.578;9.760;2023-05-31T11:42:47;4.53;;;1.40;;
56427;SDS011;42331;53.578;9.760;2023-05-31T11:45:18;3.57;;;1.33;;
56427;SDS011;42331;53.578;9.760;2023-05-31T11:48:02;3.78;;;1.00;;
56427;SDS011;42331;53.578;9.760;2023-05-31T11:50:38;6.00;;;1.23;;
56427;SDS011;42331;53.578;9.760;2023-05-31T11:53:11;4.78;;;1.35;;
56427;SDS011;42331;53.578;9.760;2023-05-31T11:55:46;3.92;;;1.05;;
56427;SDS011;42331;53.578;9.760;2023-05-31T11:58:19;7.10;;;1.80;;
56427;SDS011;42331;53.578;9.760;2023-05-31T12:00:51;6.03;;;1.27;;
56427;SDS011;42331;53.578;9.760;2023-05-31T12:03:26;5.68;;;1.33;;
56427;SDS011;42331;53.578;9.760;2023-05-31T12:05:57;4.00;;;1.43;;
56427;SDS011;42331;53.578;9.760;2023-05-31T12:08:29;6.38;;;1.10;;
56427;SDS011;42331;53.578;9.760;2023-05-31T12:11:01;5.32;;;1.30;;
56427;SDS011;42331;53.578;9.760;2023-05-31T12:13:33;4.43;;;1.30;;
56427;SDS011;42331;53.578;9.760;2023-05-31T12:16:04;6.37;;;1.23;;
56427;SDS011;42331;53.578;9.760;2023-05-31T12:18:35;4.73;;;1.37;;
56427;SDS011;42331;53.578;9.760;2023-05-31T12:21:07;5.63;;;1.10;;
56427;SDS011;42331;53.578;9.760;2023-05-31T12:23:51;3.70;;;1.00;;
56427;SDS011;42331;53.578;9.760;2023-05-31T12:26:24;3.65;;;1.00;;
56427;SDS011;42331;53.578;9.760;2023-05-31T12:28:57;3.92;;;0.80;;
56427;SDS011;42331;53.578;9.760;2023-05-31T12:31:28;5.07;;;0.90;;
56427;SDS011;42331;53.578;9.760;2023-05-31T12:36:46;2.63;;;0.65;;
56427;SDS011;42331;53.578;9.760;2023-05-31T12:39:21;4.45;;;1.15;;
56427;SDS011;42331;53.578;9.760;2023-05-31T12:42:03;4.55;;;0.80;;
56427;SDS011;42331;53.578;9.760;2023-05-31T12:44:36;3.08;;;0.70;;
56427;SDS011;42331;53.578;9.760;2023-05-31T12:47:08;3.92;;;0.70;;
56427;SDS011;42331;53.578;9.760;2023-05-31T12:49:39;6.37;;;0.80;;
56427;SDS011;42331;53.578;9.760;2023-05-31T12:52:14;2.95;;;0.85;;
56427;SDS011;42331;53.578;9.760;2023-05-31T12:54:45;2.80;;;0.68;;
56427;SDS011;42331;53.578;9.760;2023-05-31T12:57:16;5.77;;;0.93;;
56427;SDS011;42331;53.578;9.760;2023-05-31T12:59:47;4.07;;;0.90;;
56427;SDS011;42331;53.578;9.760;2023-05-31T13:02:46;3.38;;;1.13;;
56427;SDS011;42331;53.578;9.760;2023-05-31T13:05:17;5.53;;;1.00;;
56427;SDS011;42331;53.578;9.760;2023-05-31T13:07:47;3.37;;;0.87;;
56427;SDS011;42331;53.578;9.760;2023-05-31T13:10:18;5.17;;;1.10;;
56427;SDS011;42331;53.578;9.760;2023-05-31T13:12:49;4.20;;;1.07;;
56427;SDS011;42331;53.578;9.760;2023-05-31T13:15:20;7.80;;;1.00;;
56427;SDS011;42331;53.578;9.760;2023-05-31T13:17:50;5.47;;;1.07;;
56427;SDS011;42331;53.578;9.760;2023-05-31T13:20:22;1.70;;;0.80;;
56427;SDS011;42331;53.578;9.760;2023-05-31T13:22:53;4.45;;;1.02;;
56427;SDS011;42331;53.578;9.760;2023-05-31T13:25:24;4.70;;;0.80;;
56427;SDS011;42331;53.578;9.760;2023-05-31T13:27:55;4.77;;;1.23;;
56427;SDS011;42331;53.578;9.760;2023-05-31T13:30:25;9.00;;;1.17;;
56427;SDS011;42331;53.578;9.760;2023-05-31T13:32:57;7.20;;;1.10;;
56427;SDS011;42331;53.578;9.760;2023-05-31T13:35:27;3.90;;;1.20;;
56427;SDS011;42331;53.578;9.760;2023-05-31T13:37:58;3.13;;;1.00;;
56427;SDS011;42331;53.578;9.760;2023-05-31T13:40:29;4.67;;;0.93;;
56427;SDS011;42331;53.578;9.760;2023-05-31T13:42:59;3.83;;;1.00;;
56427;SDS011;42331;53.578;9.760;2023-05-31T13:45:30;4.93;;;1.02;;
56427;SDS011;42331;53.578;9.760;2023-05-31T13:48:01;6.27;;;1.23;;
56427;SDS011;42331;53.578;9.760;2023-05-31T13:50:32;6.77;;;1.23;;
56427;SDS011;42331;53.578;9.760;2023-05-31T13:53:03;4.60;;;1.70;;
56427;SDS011;42331;53.578;9.760;2023-05-31T13:55:33;5.10;;;1.23;;
56427;SDS011;42331;53.578;9.760;2023-05-31T13:58:04;5.67;;;1.50;;
56427;SDS011;42331;53.578;9.760;2023-05-31T14:00:35;5.90;;;1.20;;
56427;SDS011;42331;53.578;9.760;2023-05-31T14:03:06;9.80;;;1.47;;
56427;SDS011;42331;53.578;9.760;2023-05-31T14:05:37;7.13;;;1.63;;
56427;SDS011;42331;53.578;9.760;2023-05-31T14:08:07;3.43;;;1.00;;
56427;SDS011;42331;53.578;9.760;2023-05-31T14:10:38;6.27;;;1.30;;
56427;SDS011;42331;53.578;9.760;2023-05-31T14:13:09;5.23;;;1.37;;
56427;SDS011;42331;53.578;9.760;2023-05-31T14:15:41;4.45;;;1.08;;
56427;SDS011;42331;53.578;9.760;2023-05-31T14:18:11;3.13;;;1.13;;
56427;SDS011;42331;53.578;9.760;2023-05-31T14:20:42;5.47;;;1.20;;
56427;SDS011;42331;53.578;9.760;2023-05-31T14:23:15;4.80;;;1.48;;
56427;SDS011;42331;53.578;9.760;2023-05-31T14:25:46;6.53;;;1.58;;
56427;SDS011;42331;53.578;9.760;2023-05-31T14:28:16;5.97;;;1.83;;
56427;SDS011;42331;53.578;9.760;2023-05-31T14:30:47;8.57;;;1.63;;
56427;SDS011;42331;53.578;9.760;2023-05-31T14:33:18;4.23;;;1.47;;
56427;SDS011;42331;53.578;9.760;2023-05-31T14:35:49;6.75;;;1.50;;
56427;SDS011;42331;53.578;9.760;2023-05-31T14:38:20;3.73;;;1.20;;
56427;SDS011;42331;53.578;9.760;2023-05-31T14:40:54;5.13;;;1.80;;
56427;SDS011;42331;53.578;9.760;2023-05-31T14:43:24;6.40;;;1.20;;
56427;SDS011;42331;53.578;9.760;2023-05-31T14:45:55;4.63;;;1.27;;
56427;SDS011;42331;53.578;9.760;2023-05-31T14:48:26;3.90;;;1.50;;
56427;SDS011;42331;53.578;9.760;2023-05-31T14:50:56;2.85;;;1.20;;
56427;SDS011;42331;53.578;9.760;2023-05-31T14:53:27;5.90;;;1.60;;
56427;SDS011;42331;53.578;9.760;2023-05-31T14:56:01;6.07;;;1.70;;
56427;SDS011;42331;53.578;9.760;2023-05-31T14:58:32;7.25;;;1.70;;
56427;SDS011;42331;53.578;9.760;2023-05-31T15:04:23;6.43;;;1.70;;
56427;SDS011;42331;53.578;9.760;2023-05-31T15:06:55;6.13;;;1.90;;
56427;SDS011;42331;53.578;9.760;2023-05-31T15:09:26;6.10;;;1.90;;
56427;SDS011;42331;53.578;9.760;2023-05-31T15:11:57;23.65;;;3.60;;
56427;SDS011;42331;53.578;9.760;2023-05-31T15:14:27;5.07;;;1.30;;
56427;SDS011;42331;53.578;9.760;2023-05-31T15:16:58;9.13;;;1.70;;
56427;SDS011;42331;53.578;9.760;2023-05-31T15:19:29;6.90;;;1.80;;
56427;SDS011;42331;53.578;9.760;2023-05-31T15:22:00;4.90;;;1.53;;
56427;SDS011;42331;53.578;9.760;2023-05-31T15:24:31;9.13;;;2.43;;
56427;SDS011;42331;53.578;9.760;2023-05-31T15:27:01;6.03;;;2.15;;
56427;SDS011;42331;53.578;9.760;2023-05-31T15:29:32;6.10;;;2.23;;
56427;SDS011;42331;53.578;9.760;2023-05-31T15:32:03;6.07;;;2.40;;
56427;SDS011;42331;53.578;9.760;2023-05-31T15:34:36;5.72;;;2.50;;
56427;SDS011;42331;53.578;9.760;2023-05-31T15:37:07;6.93;;;2.65;;
56427;SDS011;42331;53.578;9.760;2023-05-31T15:39:38;9.30;;;2.47;;
56427;SDS011;42331;53.578;9.760;2023-05-31T15:42:08;8.10;;;3.00;;
56427;SDS011;42331;53.578;9.760;2023-05-31T15:44:39;8.00;;;2.77;;
56427;SDS011;42331;53.578;9.760;2023-05-31T15:47:10;7.80;;;2.60;;
56427;SDS011;42331;53.578;9.760;2023-05-31T15:49:40;7.60;;;2.40;;
56427;SDS011;42331;53.578;9.760;2023-05-31T15:52:11;9.30;;;2.80;;
56427;SDS011;42331;53.578;9.760;2023-05-31T15:54:42;7.67;;;2.47;;
56427;SDS011;42331;53.578;9.760;2023-05-31T15:57:13;5.57;;;2.00;;
56427;SDS011;42331;53.578;9.760;2023-05-31T15:59:43;6.78;;;2.13;;
56427;SDS011;42331;53.578;9.760;2023-05-31T16:02:14;11.23;;;3.27;;
56427;SDS011;42331;53.578;9.760;2023-05-31T16:04:45;10.77;;;3.08;;
56427;SDS011;42331;53.578;9.760;2023-05-31T16:07:16;7.83;;;2.67;;
56427;SDS011;42331;53.578;9.760;2023-05-31T16:09:47;8.10;;;2.78;;
56427;SDS011;42331;53.578;9.760;2023-05-31T16:12:17;8.53;;;2.03;;
56427;SDS011;42331;53.578;9.760;2023-05-31T16:14:48;7.93;;;2.10;;
56427;SDS011;42331;53.578;9.760;2023-05-31T16:19:51;7.15;;;2.10;;
56427;SDS011;42331;53.578;9.760;2023-05-31T16:22:22;4.87;;;1.77;;
56427;SDS011;42331;53.578;9.760;2023-05-31T16:24:52;8.73;;;2.67;;